Aegean Tiffany — SVAE9 — position and weather

sailwx.info

Track history (hours):
 
Tides and Currents Weather Stations Pressure Air Temp Water Temp Dewpoint Dewpoint Depression Visibility Wind Speed Wind Dir Waves Ship Positions

Aegean Tiffany

Last reported at 2018-Jan-23 02:01 UTC. Time now 2018-Jan-23 10:19 UTC.
Position N 38°05' E 022°40'.

Length 80 m; draft 6 m.

Type: Tanker. MMSI: 240870000.

Date/timePositionNaut miles runAvg speedWind from/ knotsBaromVisibWave heightAir tempDewpointWater temp
2018-Jan-23 02:01N 38°05' E 022°40'0 7.4
2018-Jan-23 01:58N 38°05' E 022°40'4 7.3
2018-Jan-23 01:28N 38°03' E 022°44'4 7.8
2018-Jan-23 01:00N 38°01' E 022°48'4 7.5
2018-Jan-23 00:30N 37°60' E 022°52'4 7.3
2018-Jan-23 00:00N 37°58' E 022°56'4 5.6
2018-Jan-22 23:20N 37°55' E 023°00'2 5.2
2018-Jan-22 23:00N 37°54' E 023°02'3 6.8
2018-Jan-22 22:30N 37°53' E 023°06'4 7.5
2018-Jan-22 22:00N 37°54' E 023°10'4 7.2
2018-Jan-22 21:30N 37°55' E 023°14'4 7.6
2018-Jan-22 21:00N 37°56' E 023°19'4 7.7
2018-Jan-22 20:30N 37°57' E 023°24'2 4.7
2018-Jan-22 20:00N 37°59' E 023°25'4 7.6
2018-Jan-22 19:30N 38°01' E 023°29'2 4.9
2018-Jan-22 19:01N 38°02' E 023°32'0 0.0
2018-Jan-22 18:30N 38°02' E 023°32'0 0.0
2018-Jan-22 18:01N 38°02' E 023°32'0 0.0
2018-Jan-22 17:30N 38°02' E 023°32'0 0.0
2018-Jan-22 17:00N 38°02' E 023°32'0 0.0
2018-Jan-22 16:30N 38°02' E 023°32'0 0.0
2018-Jan-22 16:01N 38°02' E 023°32'0 0.0
2018-Jan-22 15:30N 38°02' E 023°32'0 0.0
2018-Jan-22 05:27N 38°02' E 023°32'0 1.0
2018-Jan-22 05:00N 38°02' E 023°32'3 5.0
2018-Jan-22 04:30N 38°02' E 023°36'0 0.1
2018-Jan-22 04:00N 38°02' E 023°36'0 0.0
2018-Jan-22 03:30N 38°02' E 023°36'0 0.0
2018-Jan-22 03:00N 38°02' E 023°36'0 0.0
2018-Jan-22 02:30N 38°02' E 023°36'0 0.0
2018-Jan-22 02:00N 38°02' E 023°36'0 0.0
2018-Jan-22 01:30N 38°02' E 023°36'0 0.0
2018-Jan-22 01:00N 38°02' E 023°36'0 0.0
2018-Jan-22 00:30N 38°02' E 023°36'0 0.0
2018-Jan-22 00:00N 38°02' E 023°36'0 0.0
2018-Jan-21 23:30N 38°02' E 023°36'0 0.0
2018-Jan-21 23:00N 38°02' E 023°36'0 0.0
2018-Jan-21 22:30N 38°02' E 023°36'1 1.3
2018-Jan-21 22:00N 38°02' E 023°35'0 0.1
2018-Jan-21 21:30N 38°02' E 023°35'0 0.0
2018-Jan-21 21:00N 38°02' E 023°35'0 0.1
2018-Jan-21 20:30N 38°02' E 023°35'0 0.0
2018-Jan-21 20:00N 38°02' E 023°35'0 0.0
2018-Jan-21 19:30N 38°02' E 023°35'0 0.0
2018-Jan-21 19:00N 38°02' E 023°35'0 0.1
2018-Jan-21 18:30N 38°02' E 023°35'0 0.0
2018-Jan-21 18:00N 38°02' E 023°35'0 0.0
2018-Jan-21 17:30N 38°02' E 023°35'0 0.0
2018-Jan-21 17:00N 38°02' E 023°35'0 0.0
2018-Jan-21 16:31N 38°02' E 023°35'0 0.0
2018-Jan-21 16:00N 38°02' E 023°35'0 0.0
2018-Jan-21 15:30N 38°02' E 023°35'0 0.0
2018-Jan-21 15:00N 38°02' E 023°35'0 0.0
2018-Jan-21 14:30N 38°02' E 023°35'0 0.0
2018-Jan-21 14:00N 38°02' E 023°35'0 0.0
2018-Jan-21 13:30N 38°02' E 023°35'0 0.1
2018-Jan-21 13:00N 38°02' E 023°35'3 6.2
2018-Jan-21 12:30N 38°02' E 023°31'0 0.3
2018-Jan-21 12:00N 38°02' E 023°31'0 0.0
2018-Jan-21 11:30N 38°02' E 023°31'0 0.0
2018-Jan-21 11:00N 38°02' E 023°31'0 0.0
2018-Jan-21 10:30N 38°02' E 023°31'0 0.0
2018-Jan-21 10:00N 38°02' E 023°31'0 0.0
2018-Jan-21 09:30N 38°02' E 023°31'0 0.0
2018-Jan-21 09:00N 38°02' E 023°31'0 0.0
2018-Jan-21 08:30N 38°02' E 023°31'0 0.0
2018-Jan-21 08:00N 38°02' E 023°31'1 0.0
2018-Jan-19 20:30N 38°02' E 023°32'0 0.6
2018-Jan-19 20:00N 38°02' E 023°32'4 7.5
2018-Jan-19 19:30N 37°58' E 023°33'3 6.9
2018-Jan-19 19:00N 37°57' E 023°37'0 0.1
2018-Jan-19 18:30N 37°57' E 023°37'0 0.0
2018-Jan-19 18:00N 37°57' E 023°37'0 0.0
2018-Jan-19 17:30N 37°57' E 023°37'0 0.0
2018-Jan-19 17:00N 37°57' E 023°37'0 0.0
2018-Jan-19 16:30N 37°57' E 023°37'0 0.0
2018-Jan-19 16:00N 37°57' E 023°37'0 0.0
2018-Jan-19 15:30N 37°57' E 023°37'0 0.0
2018-Jan-19 15:00N 37°57' E 023°37'0 0.0
2018-Jan-19 14:30N 37°57' E 023°37'0 0.0
2018-Jan-19 14:00N 37°57' E 023°37'0 0.0
2018-Jan-19 13:30N 37°57' E 023°37'0 0.0
2018-Jan-19 13:00N 37°57' E 023°37'0 0.0
2018-Jan-19 12:30N 37°57' E 023°37'1 2.7
2018-Jan-19 12:00N 37°57' E 023°35'3 6.4
2018-Jan-19 11:30N 37°60' E 023°33'3 5.4
2018-Jan-19 11:00N 38°02' E 023°32'0 0.0
2018-Jan-19 10:30N 38°02' E 023°32'0 0.0
2018-Jan-19 10:00N 38°02' E 023°32'0 0.0
2018-Jan-19 09:30N 38°02' E 023°32'0 0.3
2018-Jan-19 09:00N 38°02' E 023°32'3 6.7
2018-Jan-19 08:30N 38°01' E 023°28'3 6.3
2018-Jan-19 08:00N 37°58' E 023°25'4 7.1
2018-Jan-19 07:30N 37°56' E 023°22'4 8.3
2018-Jan-19 07:00N 37°55' E 023°17'4 8.5
2018-Jan-19 06:30N 37°54' E 023°12'4 8.4
2018-Jan-19 06:00N 37°54' E 023°06'4 8.3
2018-Jan-19 05:30N 37°55' E 023°01'3 6.7
2018-Jan-19 05:00N 37°57' E 022°58'2 4.8
2018-Jan-19 04:30N 37°59' E 022°56'1 1.8
2018-Jan-19 04:00N 37°59' E 022°55'1 2.8
2018-Jan-19 03:30N 37°60' E 022°53'4 7.3
2018-Jan-19 03:00N 38°02' E 022°49'4 8.0
2018-Jan-19 02:29N 38°04' E 022°44'  
Track history (hours):
 
Tides and Currents Weather Stations Pressure Air Temp Water Temp Dewpoint Dewpoint Depression Visibility Wind Speed Wind Dir Waves Ship Positions

Aegean Tiffany

Last reported at 2018-Jan-23 02:01 UTC. Time now 2018-Jan-23 10:19 UTC.
Position N 38°05' E 022°40'.

Length 80 m; draft 6 m.

Type: Tanker. MMSI: 240870000.

Date/timePositionNaut miles runAvg speedWind from/ knotsBaromVisibWave heightAir tempDewpointWater temp
2018-Jan-23 02:01N 38°05' E 022°40'0 7.4
2018-Jan-23 01:58N 38°05' E 022°40'4 7.3
2018-Jan-23 01:28N 38°03' E 022°44'4 7.8
2018-Jan-23 01:00N 38°01' E 022°48'4 7.5
2018-Jan-23 00:30N 37°60' E 022°52'4 7.3
2018-Jan-23 00:00N 37°58' E 022°56'4 5.6
2018-Jan-22 23:20N 37°55' E 023°00'2 5.2
2018-Jan-22 23:00N 37°54' E 023°02'3 6.8
2018-Jan-22 22:30N 37°53' E 023°06'4 7.5
2018-Jan-22 22:00N 37°54' E 023°10'4 7.2
2018-Jan-22 21:30N 37°55' E 023°14'4 7.6
2018-Jan-22 21:00N 37°56' E 023°19'4 7.7
2018-Jan-22 20:30N 37°57' E 023°24'2 4.7
2018-Jan-22 20:00N 37°59' E 023°25'4 7.6
2018-Jan-22 19:30N 38°01' E 023°29'2 4.9
2018-Jan-22 19:01N 38°02' E 023°32'0 0.0
2018-Jan-22 18:30N 38°02' E 023°32'0 0.0
2018-Jan-22 18:01N 38°02' E 023°32'0 0.0
2018-Jan-22 17:30N 38°02' E 023°32'0 0.0
2018-Jan-22 17:00N 38°02' E 023°32'0 0.0
2018-Jan-22 16:30N 38°02' E 023°32'0 0.0
2018-Jan-22 16:01N 38°02' E 023°32'0 0.0
2018-Jan-22 15:30N 38°02' E 023°32'0 0.0
2018-Jan-22 05:27N 38°02' E 023°32'0 1.0
2018-Jan-22 05:00N 38°02' E 023°32'3 5.0
2018-Jan-22 04:30N 38°02' E 023°36'0 0.1
2018-Jan-22 04:00N 38°02' E 023°36'0 0.0
2018-Jan-22 03:30N 38°02' E 023°36'0 0.0
2018-Jan-22 03:00N 38°02' E 023°36'0 0.0
2018-Jan-22 02:30N 38°02' E 023°36'0 0.0
2018-Jan-22 02:00N 38°02' E 023°36'0 0.0
2018-Jan-22 01:30N 38°02' E 023°36'0 0.0
2018-Jan-22 01:00N 38°02' E 023°36'0 0.0
2018-Jan-22 00:30N 38°02' E 023°36'0 0.0
2018-Jan-22 00:00N 38°02' E 023°36'0 0.0
2018-Jan-21 23:30N 38°02' E 023°36'0 0.0
2018-Jan-21 23:00N 38°02' E 023°36'0 0.0
2018-Jan-21 22:30N 38°02' E 023°36'1 1.3
2018-Jan-21 22:00N 38°02' E 023°35'0 0.1
2018-Jan-21 21:30N 38°02' E 023°35'0 0.0
2018-Jan-21 21:00N 38°02' E 023°35'0 0.1
2018-Jan-21 20:30N 38°02' E 023°35'0 0.0
2018-Jan-21 20:00N 38°02' E 023°35'0 0.0
2018-Jan-21 19:30N 38°02' E 023°35'0 0.0
2018-Jan-21 19:00N 38°02' E 023°35'0 0.1
2018-Jan-21 18:30N 38°02' E 023°35'0 0.0
2018-Jan-21 18:00N 38°02' E 023°35'0 0.0
2018-Jan-21 17:30N 38°02' E 023°35'0 0.0
2018-Jan-21 17:00N 38°02' E 023°35'0 0.0
2018-Jan-21 16:31N 38°02' E 023°35'0 0.0
2018-Jan-21 16:00N 38°02' E 023°35'0 0.0
2018-Jan-21 15:30N 38°02' E 023°35'0 0.0
2018-Jan-21 15:00N 38°02' E 023°35'0 0.0
2018-Jan-21 14:30N 38°02' E 023°35'0 0.0
2018-Jan-21 14:00N 38°02' E 023°35'0 0.0
2018-Jan-21 13:30N 38°02' E 023°35'0 0.1
2018-Jan-21 13:00N 38°02' E 023°35'3 6.2
2018-Jan-21 12:30N 38°02' E 023°31'0 0.3
2018-Jan-21 12:00N 38°02' E 023°31'0 0.0
2018-Jan-21 11:30N 38°02' E 023°31'0 0.0
2018-Jan-21 11:00N 38°02' E 023°31'0 0.0
2018-Jan-21 10:30N 38°02' E 023°31'0 0.0
2018-Jan-21 10:00N 38°02' E 023°31'0 0.0
2018-Jan-21 09:30N 38°02' E 023°31'0 0.0
2018-Jan-21 09:00N 38°02' E 023°31'0 0.0
2018-Jan-21 08:30N 38°02' E 023°31'0 0.0
2018-Jan-21 08:00N 38°02' E 023°31'1 0.0
2018-Jan-19 20:30N 38°02' E 023°32'0 0.6
2018-Jan-19 20:00N 38°02' E 023°32'4 7.5
2018-Jan-19 19:30N 37°58' E 023°33'3 6.9
2018-Jan-19 19:00N 37°57' E 023°37'0 0.1
2018-Jan-19 18:30N 37°57' E 023°37'0 0.0
2018-Jan-19 18:00N 37°57' E 023°37'0 0.0
2018-Jan-19 17:30N 37°57' E 023°37'0 0.0
2018-Jan-19 17:00N 37°57' E 023°37'0 0.0
2018-Jan-19 16:30N 37°57' E 023°37'0 0.0
2018-Jan-19 16:00N 37°57' E 023°37'0 0.0
2018-Jan-19 15:30N 37°57' E 023°37'0 0.0
2018-Jan-19 15:00N 37°57' E 023°37'0 0.0
2018-Jan-19 14:30N 37°57' E 023°37'0 0.0
2018-Jan-19 14:00N 37°57' E 023°37'0 0.0
2018-Jan-19 13:30N 37°57' E 023°37'0 0.0
2018-Jan-19 13:00N 37°57' E 023°37'0 0.0
2018-Jan-19 12:30N 37°57' E 023°37'1 2.7
2018-Jan-19 12:00N 37°57' E 023°35'3 6.4
2018-Jan-19 11:30N 37°60' E 023°33'3 5.4
2018-Jan-19 11:00N 38°02' E 023°32'0 0.0
2018-Jan-19 10:30N 38°02' E 023°32'0 0.0
2018-Jan-19 10:00N 38°02' E 023°32'0 0.0
2018-Jan-19 09:30N 38°02' E 023°32'0 0.3
2018-Jan-19 09:00N 38°02' E 023°32'3 6.7
2018-Jan-19 08:30N 38°01' E 023°28'3 6.3
2018-Jan-19 08:00N 37°58' E 023°25'4 7.1
2018-Jan-19 07:30N 37°56' E 023°22'4 8.3
2018-Jan-19 07:00N 37°55' E 023°17'4 8.5
2018-Jan-19 06:30N 37°54' E 023°12'4 8.4
2018-Jan-19 06:00N 37°54' E 023°06'4 8.3
2018-Jan-19 05:30N 37°55' E 023°01'3 6.7
2018-Jan-19 05:00N 37°57' E 022°58'2 4.8
2018-Jan-19 04:30N 37°59' E 022°56'1 1.8
2018-Jan-19 04:00N 37°59' E 022°55'1 2.8
2018-Jan-19 03:30N 37°60' E 022°53'4 7.3
2018-Jan-19 03:00N 38°02' E 022°49'4 8.0
2018-Jan-19 02:29N 38°04' E 022°44'  

Dump ship's entire track history